Stilwell, Kansas
Current Conditions -  °F | °C
As of 1:53 PM on Monday 24 Nov 2014 (Local Time) from KOJC Reporting Station
Overcast Overcast  
Wind Chill: 28°   Ceiling: 3400
Heat Index: 36°   Visibility: 10mi
Dew Point: 22°   Wind: 12mph
Humidity: 57%   Direction: 300°WNW
Pressure: 29.82"   Gusts: 23mph
Location:  38.77°N, 94.66°W
Report Text: KOJC 241953Z 30010G20KT 10SM OVC034 02/M06 A2982 RMK AO2 SLP105 T00221056
Loading
Personal Weather Stations






























Interactive Weather Map New forecast layout! Learn more

10-Day Weather Forecast

Advertisements
Track Severe Weather on mobile